sensor_id;sensor_type;location;lat;lon;timestamp;P1;durP1;ratioP1;P2;durP2;ratioP2
20154;SDS011;10238;49.556;10.956;2022-09-09T00:00:05;2.47;;;2.20;;
20154;SDS011;10238;49.556;10.956;2022-09-09T00:03:02;2.28;;;2.08;;
20154;SDS011;10238;49.556;10.956;2022-09-09T00:06:02;5.85;;;2.75;;
20154;SDS011;10238;49.556;10.956;2022-09-09T00:09:04;2.95;;;2.10;;
20154;SDS011;10238;49.556;10.956;2022-09-09T00:12:02;3.65;;;2.22;;
20154;SDS011;10238;49.556;10.956;2022-09-09T00:15:02;4.85;;;2.58;;
20154;SDS011;10238;49.556;10.956;2022-09-09T00:18:01;4.97;;;2.70;;
20154;SDS011;10238;49.556;10.956;2022-09-09T00:21:05;2.92;;;2.30;;
20154;SDS011;10238;49.556;10.956;2022-09-09T00:23:59;8.25;;;2.92;;
20154;SDS011;10238;49.556;10.956;2022-09-09T00:27:02;4.88;;;2.13;;
20154;SDS011;10238;49.556;10.956;2022-09-09T00:30:12;3.55;;;2.60;;
20154;SDS011;10238;49.556;10.956;2022-09-09T00:33:10;8.65;;;2.45;;
20154;SDS011;10238;49.556;10.956;2022-09-09T00:36:02;6.30;;;2.60;;
20154;SDS011;10238;49.556;10.956;2022-09-09T00:39:04;4.03;;;2.10;;
20154;SDS011;10238;49.556;10.956;2022-09-09T00:42:02;3.03;;;2.22;;
20154;SDS011;10238;49.556;10.956;2022-09-09T00:45:08;3.00;;;2.20;;
20154;SDS011;10238;49.556;10.956;2022-09-09T00:48:17;3.33;;;2.47;;
20154;SDS011;10238;49.556;10.956;2022-09-09T00:51:13;2.53;;;2.15;;
20154;SDS011;10238;49.556;10.956;2022-09-09T00:54:17;3.92;;;2.53;;
20154;SDS011;10238;49.556;10.956;2022-09-09T00:57:25;3.78;;;2.28;;
20154;SDS011;10238;49.556;10.956;2022-09-09T01:00:20;5.60;;;2.20;;
20154;SDS011;10238;49.556;10.956;2022-09-09T01:03:19;2.28;;;1.92;;
20154;SDS011;10238;49.556;10.956;2022-09-09T01:06:20;2.40;;;2.20;;
20154;SDS011;10238;49.556;10.956;2022-09-09T01:09:21;2.75;;;2.30;;
20154;SDS011;10238;49.556;10.956;2022-09-09T01:12:23;3.70;;;2.10;;
20154;SDS011;10238;49.556;10.956;2022-09-09T01:15:23;2.53;;;2.10;;
20154;SDS011;10238;49.556;10.956;2022-09-09T01:18:17;3.35;;;2.40;;
20154;SDS011;10238;49.556;10.956;2022-09-09T01:21:15;3.03;;;2.15;;
20154;SDS011;10238;49.556;10.956;2022-09-09T01:24:25;3.13;;;2.42;;
20154;SDS011;10238;49.556;10.956;2022-09-09T01:27:27;2.67;;;2.03;;
20154;SDS011;10238;49.556;10.956;2022-09-09T01:30:17;5.43;;;2.28;;
20154;SDS011;10238;49.556;10.956;2022-09-09T01:33:09;2.67;;;2.03;;
20154;SDS011;10238;49.556;10.956;2022-09-09T01:36:09;2.92;;;2.17;;
20154;SDS011;10238;49.556;10.956;2022-09-09T01:39:07;2.60;;;2.40;;
20154;SDS011;10238;49.556;10.956;2022-09-09T01:41:58;6.68;;;1.95;;
20154;SDS011;10238;49.556;10.956;2022-09-09T01:44:50;4.28;;;2.50;;
20154;SDS011;10238;49.556;10.956;2022-09-09T01:47:42;3.65;;;2.22;;
20154;SDS011;10238;49.556;10.956;2022-09-09T01:50:34;6.35;;;1.98;;
20154;SDS011;10238;49.556;10.956;2022-09-09T01:53:24;4.13;;;2.15;;
20154;SDS011;10238;49.556;10.956;2022-09-09T01:56:18;4.63;;;2.47;;
20154;SDS011;10238;49.556;10.956;2022-09-09T01:59:29;4.15;;;2.30;;
20154;SDS011;10238;49.556;10.956;2022-09-09T02:02:44;3.05;;;2.05;;
20154;SDS011;10238;49.556;10.956;2022-09-09T02:05:50;2.42;;;1.92;;
20154;SDS011;10238;49.556;10.956;2022-09-09T02:08:50;3.70;;;2.30;;
20154;SDS011;10238;49.556;10.956;2022-09-09T02:11:44;4.47;;;1.92;;
20154;SDS011;10238;49.556;10.956;2022-09-09T02:14:45;2.88;;;2.10;;
20154;SDS011;10238;49.556;10.956;2022-09-09T02:17:44;2.40;;;2.10;;
20154;SDS011;10238;49.556;10.956;2022-09-09T02:20:40;2.92;;;2.28;;
20154;SDS011;10238;49.556;10.956;2022-09-09T02:23:32;3.80;;;2.50;;
20154;SDS011;10238;49.556;10.956;2022-09-09T02:26:25;2.80;;;2.60;;
20154;SDS011;10238;49.556;10.956;2022-09-09T02:29:18;6.70;;;2.45;;
20154;SDS011;10238;49.556;10.956;2022-09-09T02:32:16;3.10;;;2.22;;
20154;SDS011;10238;49.556;10.956;2022-09-09T02:35:12;4.75;;;2.40;;
20154;SDS011;10238;49.556;10.956;2022-09-09T02:38:07;3.75;;;2.50;;
20154;SDS011;10238;49.556;10.956;2022-09-09T02:41:02;4.40;;;2.35;;
20154;SDS011;10238;49.556;10.956;2022-09-09T02:43:51;2.63;;;2.13;;
20154;SDS011;10238;49.556;10.956;2022-09-09T02:46:46;5.85;;;2.92;;
20154;SDS011;10238;49.556;10.956;2022-09-09T02:50:16;2.33;;;1.85;;
20154;SDS011;10238;49.556;10.956;2022-09-09T02:53:12;2.90;;;2.10;;
20154;SDS011;10238;49.556;10.956;2022-09-09T02:56:13;3.97;;;2.38;;
20154;SDS011;10238;49.556;10.956;2022-09-09T02:59:08;2.40;;;2.20;;
20154;SDS011;10238;49.556;10.956;2022-09-09T03:01:59;2.20;;;2.00;;
20154;SDS011;10238;49.556;10.956;2022-09-09T03:04:51;3.17;;;2.53;;
20154;SDS011;10238;49.556;10.956;2022-09-09T03:07:42;3.17;;;2.20;;
20154;SDS011;10238;49.556;10.956;2022-09-09T03:10:35;2.78;;;2.00;;
20154;SDS011;10238;49.556;10.956;2022-09-09T03:13:25;3.20;;;2.00;;
20154;SDS011;10238;49.556;10.956;2022-09-09T03:16:16;2.83;;;2.28;;
20154;SDS011;10238;49.556;10.956;2022-09-09T03:19:07;2.28;;;2.08;;
20154;SDS011;10238;49.556;10.956;2022-09-09T03:21:56;6.63;;;2.80;;
20154;SDS011;10238;49.556;10.956;2022-09-09T03:24:48;2.42;;;2.22;;
20154;SDS011;10238;49.556;10.956;2022-09-09T03:27:39;3.42;;;2.47;;
20154;SDS011;10238;49.556;10.956;2022-09-09T03:30:28;2.42;;;2.22;;
20154;SDS011;10238;49.556;10.956;2022-09-09T03:33:18;3.53;;;2.40;;
20154;SDS011;10238;49.556;10.956;2022-09-09T03:36:07;3.10;;;2.03;;
20154;SDS011;10238;49.556;10.956;2022-09-09T03:38:58;3.30;;;2.75;;
20154;SDS011;10238;49.556;10.956;2022-09-09T03:41:49;2.97;;;2.00;;
20154;SDS011;10238;49.556;10.956;2022-09-09T03:44:39;4.10;;;2.60;;
20154;SDS011;10238;49.556;10.956;2022-09-09T03:47:29;4.32;;;2.65;;
20154;SDS011;10238;49.556;10.956;2022-09-09T03:50:18;3.00;;;2.40;;
20154;SDS011;10238;49.556;10.956;2022-09-09T03:53:08;4.43;;;2.38;;
20154;SDS011;10238;49.556;10.956;2022-09-09T03:55:58;3.85;;;2.45;;
20154;SDS011;10238;49.556;10.956;2022-09-09T03:58:50;2.85;;;2.55;;
20154;SDS011;10238;49.556;10.956;2022-09-09T04:01:41;3.53;;;2.60;;
20154;SDS011;10238;49.556;10.956;2022-09-09T04:04:32;4.38;;;2.90;;
20154;SDS011;10238;49.556;10.956;2022-09-09T04:07:22;4.32;;;3.15;;
20154;SDS011;10238;49.556;10.956;2022-09-09T04:10:12;4.53;;;2.60;;
20154;SDS011;10238;49.556;10.956;2022-09-09T04:13:05;3.42;;;2.45;;
20154;SDS011;10238;49.556;10.956;2022-09-09T04:15:58;2.60;;;2.10;;
20154;SDS011;10238;49.556;10.956;2022-09-09T04:18:49;2.40;;;2.20;;
20154;SDS011;10238;49.556;10.956;2022-09-09T04:21:40;2.50;;;2.30;;
20154;SDS011;10238;49.556;10.956;2022-09-09T04:24:31;3.55;;;2.95;;
20154;SDS011;10238;49.556;10.956;2022-09-09T04:27:22;2.80;;;2.50;;
20154;SDS011;10238;49.556;10.956;2022-09-09T04:30:12;2.60;;;2.40;;
20154;SDS011;10238;49.556;10.956;2022-09-09T04:33:05;3.35;;;3.05;;
20154;SDS011;10238;49.556;10.956;2022-09-09T04:35:56;6.38;;;2.67;;
20154;SDS011;10238;49.556;10.956;2022-09-09T04:38:45;4.03;;;2.85;;
20154;SDS011;10238;49.556;10.956;2022-09-09T04:41:36;6.85;;;3.10;;
20154;SDS011;10238;49.556;10.956;2022-09-09T04:44:27;3.25;;;2.90;;
20154;SDS011;10238;49.556;10.956;2022-09-09T04:47:17;3.03;;;2.72;;
20154;SDS011;10238;49.556;10.956;2022-09-09T04:50:09;5.43;;;2.30;;
20154;SDS011;10238;49.556;10.956;2022-09-09T04:52:59;4.85;;;2.88;;
20154;SDS011;10238;49.556;10.956;2022-09-09T04:55:50;4.68;;;2.60;;
20154;SDS011;10238;49.556;10.956;2022-09-09T04:58:40;2.85;;;2.63;;
20154;SDS011;10238;49.556;10.956;2022-09-09T05:01:31;3.28;;;2.33;;
20154;SDS011;10238;49.556;10.956;2022-09-09T05:04:21;3.67;;;2.55;;
20154;SDS011;10238;49.556;10.956;2022-09-09T05:07:13;3.72;;;2.40;;
20154;SDS011;10238;49.556;10.956;2022-09-09T05:10:03;2.80;;;2.58;;
20154;SDS011;10238;49.556;10.956;2022-09-09T05:12:53;5.75;;;2.70;;
20154;SDS011;10238;49.556;10.956;2022-09-09T05:15:50;4.50;;;2.40;;
20154;SDS011;10238;49.556;10.956;2022-09-09T05:18:41;6.82;;;3.00;;
20154;SDS011;10238;49.556;10.956;2022-09-09T05:21:33;2.92;;;2.40;;
20154;SDS011;10238;49.556;10.956;2022-09-09T05:24:24;3.78;;;2.80;;
20154;SDS011;10238;49.556;10.956;2022-09-09T05:27:14;2.67;;;2.47;;
20154;SDS011;10238;49.556;10.956;2022-09-09T05:30:04;2.65;;;2.40;;
20154;SDS011;10238;49.556;10.956;2022-09-09T05:32:56;3.67;;;1.88;;
20154;SDS011;10238;49.556;10.956;2022-09-09T05:35:46;2.38;;;2.17;;
20154;SDS011;10238;49.556;10.956;2022-09-09T05:38:36;3.55;;;2.50;;
20154;SDS011;10238;49.556;10.956;2022-09-09T05:41:28;5.63;;;2.67;;
20154;SDS011;10238;49.556;10.956;2022-09-09T05:44:20;5.15;;;2.78;;
20154;SDS011;10238;49.556;10.956;2022-09-09T05:47:12;3.45;;;2.85;;
20154;SDS011;10238;49.556;10.956;2022-09-09T05:50:02;3.97;;;2.78;;
20154;SDS011;10238;49.556;10.956;2022-09-09T05:52:54;6.18;;;2.80;;
20154;SDS011;10238;49.556;10.956;2022-09-09T05:55:44;4.72;;;3.45;;
20154;SDS011;10238;49.556;10.956;2022-09-09T05:58:36;3.13;;;2.83;;
20154;SDS011;10238;49.556;10.956;2022-09-09T06:01:27;6.10;;;2.97;;
20154;SDS011;10238;49.556;10.956;2022-09-09T06:04:19;6.90;;;3.63;;
20154;SDS011;10238;49.556;10.956;2022-09-09T06:07:12;5.38;;;3.05;;
20154;SDS011;10238;49.556;10.956;2022-09-09T06:10:02;3.08;;;2.88;;
20154;SDS011;10238;49.556;10.956;2022-09-09T06:12:53;3.25;;;2.83;;
20154;SDS011;10238;49.556;10.956;2022-09-09T06:15:50;5.90;;;3.50;;
20154;SDS011;10238;49.556;10.956;2022-09-09T06:18:40;3.65;;;3.22;;
20154;SDS011;10238;49.556;10.956;2022-09-09T06:21:32;3.30;;;3.00;;
20154;SDS011;10238;49.556;10.956;2022-09-09T06:24:24;4.07;;;2.88;;
20154;SDS011;10238;49.556;10.956;2022-09-09T06:27:14;6.18;;;2.88;;
20154;SDS011;10238;49.556;10.956;2022-09-09T06:30:05;3.88;;;2.70;;
20154;SDS011;10238;49.556;10.956;2022-09-09T06:33:06;3.15;;;2.40;;
20154;SDS011;10238;49.556;10.956;2022-09-09T06:35:58;4.63;;;3.28;;
20154;SDS011;10238;49.556;10.956;2022-09-09T06:38:47;4.65;;;2.60;;
20154;SDS011;10238;49.556;10.956;2022-09-09T06:41:37;4.28;;;2.67;;
20154;SDS011;10238;49.556;10.956;2022-09-09T06:44:30;5.63;;;2.78;;
20154;SDS011;10238;49.556;10.956;2022-09-09T06:47:22;3.00;;;2.15;;
20154;SDS011;10238;49.556;10.956;2022-09-09T06:50:18;5.47;;;2.35;;
20154;SDS011;10238;49.556;10.956;2022-09-09T06:56:00;9.48;;;2.58;;
20154;SDS011;10238;49.556;10.956;2022-09-09T06:58:52;4.30;;;2.97;;
20154;SDS011;10238;49.556;10.956;2022-09-09T07:01:43;2.90;;;2.33;;
20154;SDS011;10238;49.556;10.956;2022-09-09T07:04:38;4.53;;;2.50;;
20154;SDS011;10238;49.556;10.956;2022-09-09T07:07:31;4.28;;;2.90;;
20154;SDS011;10238;49.556;10.956;2022-09-09T07:10:21;6.78;;;6.15;;
20154;SDS011;10238;49.556;10.956;2022-09-09T07:13:12;4.10;;;3.30;;
20154;SDS011;10238;49.556;10.956;2022-09-09T07:16:03;3.28;;;2.88;;
20154;SDS011;10238;49.556;10.956;2022-09-09T07:18:55;5.72;;;2.63;;
20154;SDS011;10238;49.556;10.956;2022-09-09T07:21:46;5.57;;;2.92;;
20154;SDS011;10238;49.556;10.956;2022-09-09T07:24:39;4.88;;;2.50;;
20154;SDS011;10238;49.556;10.956;2022-09-09T07:27:29;2.55;;;2.33;;
20154;SDS011;10238;49.556;10.956;2022-09-09T07:30:19;3.80;;;3.10;;
20154;SDS011;10238;49.556;10.956;2022-09-09T07:33:14;4.45;;;4.05;;
20154;SDS011;10238;49.556;10.956;2022-09-09T07:36:05;3.28;;;3.08;;
20154;SDS011;10238;49.556;10.956;2022-09-09T07:38:59;5.28;;;2.53;;
20154;SDS011;10238;49.556;10.956;2022-09-09T07:41:52;2.70;;;2.30;;
20154;SDS011;10238;49.556;10.956;2022-09-09T07:44:42;3.17;;;1.90;;
20154;SDS011;10238;49.556;10.956;2022-09-09T07:47:32;4.63;;;2.15;;
20154;SDS011;10238;49.556;10.956;2022-09-09T07:50:23;5.22;;;2.40;;
20154;SDS011;10238;49.556;10.956;2022-09-09T07:53:13;4.13;;;2.60;;
20154;SDS011;10238;49.556;10.956;2022-09-09T07:56:03;6.70;;;3.88;;
20154;SDS011;10238;49.556;10.956;2022-09-09T07:58:56;3.63;;;3.42;;
20154;SDS011;10238;49.556;10.956;2022-09-09T08:01:49;5.07;;;4.57;;
20154;SDS011;10238;49.556;10.956;2022-09-09T08:04:42;5.43;;;3.00;;
20154;SDS011;10238;49.556;10.956;2022-09-09T08:07:32;5.28;;;4.57;;
20154;SDS011;10238;49.556;10.956;2022-09-09T08:10:22;4.55;;;2.95;;
20154;SDS011;10238;49.556;10.956;2022-09-09T08:13:12;2.88;;;1.88;;
20154;SDS011;10238;49.556;10.956;2022-09-09T08:16:08;4.35;;;2.40;;
20154;SDS011;10238;49.556;10.956;2022-09-09T08:19:04;8.00;;;7.50;;
20154;SDS011;10238;49.556;10.956;2022-09-09T08:21:55;6.88;;;6.55;;
20154;SDS011;10238;49.556;10.956;2022-09-09T08:24:45;9.48;;;8.75;;
20154;SDS011;10238;49.556;10.956;2022-09-09T08:27:35;8.43;;;5.85;;
20154;SDS011;10238;49.556;10.956;2022-09-09T08:30:25;3.92;;;3.55;;
20154;SDS011;10238;49.556;10.956;2022-09-09T08:33:17;2.92;;;2.53;;
20154;SDS011;10238;49.556;10.956;2022-09-09T08:36:09;4.75;;;1.90;;
20154;SDS011;10238;49.556;10.956;2022-09-09T08:39:04;4.35;;;2.88;;
20154;SDS011;10238;49.556;10.956;2022-09-09T08:41:59;4.30;;;2.80;;
20154;SDS011;10238;49.556;10.956;2022-09-09T08:45:26;2.08;;;1.95;;
20154;SDS011;10238;49.556;10.956;2022-09-09T08:48:33;1.88;;;1.60;;
20154;SDS011;10238;49.556;10.956;2022-09-09T08:51:39;4.43;;;1.73;;
20154;SDS011;10238;49.556;10.956;2022-09-09T08:54:31;2.28;;;2.10;;
20154;SDS011;10238;49.556;10.956;2022-09-09T08:57:38;4.57;;;1.92;;
20154;SDS011;10238;49.556;10.956;2022-09-09T09:00:29;4.22;;;1.88;;
20154;SDS011;10238;49.556;10.956;2022-09-09T09:03:43;2.50;;;1.20;;
20154;SDS011;10238;49.556;10.956;2022-09-09T09:06:47;3.28;;;2.00;;
20154;SDS011;10238;49.556;10.956;2022-09-09T09:09:49;3.65;;;1.73;;
20154;SDS011;10238;49.556;10.956;2022-09-09T09:12:49;2.50;;;1.30;;
20154;SDS011;10238;49.556;10.956;2022-09-09T09:15:39;1.88;;;1.30;;
20154;SDS011;10238;49.556;10.956;2022-09-09T09:18:32;2.28;;;1.10;;
20154;SDS011;10238;49.556;10.956;2022-09-09T09:21:26;1.85;;;1.17;;
20154;SDS011;10238;49.556;10.956;2022-09-09T09:24:26;3.55;;;1.30;;
20154;SDS011;10238;49.556;10.956;2022-09-09T09:27:35;2.45;;;1.63;;
20154;SDS011;10238;49.556;10.956;2022-09-09T09:30:35;4.80;;;4.40;;
20154;SDS011;10238;49.556;10.956;2022-09-09T09:33:31;5.43;;;5.10;;
20154;SDS011;10238;49.556;10.956;2022-09-09T09:36:37;7.57;;;6.97;;
20154;SDS011;10238;49.556;10.956;2022-09-09T09:39:33;6.85;;;6.30;;
20154;SDS011;10238;49.556;10.956;2022-09-09T09:42:48;3.33;;;1.60;;
20154;SDS011;10238;49.556;10.956;2022-09-09T09:45:41;2.20;;;1.38;;
20154;SDS011;10238;49.556;10.956;2022-09-09T09:48:59;2.00;;;1.02;;
20154;SDS011;10238;49.556;10.956;2022-09-09T09:51:54;2.85;;;1.10;;
20154;SDS011;10238;49.556;10.956;2022-09-09T09:54:50;3.40;;;1.08;;
20154;SDS011;10238;49.556;10.956;2022-09-09T09:57:42;2.95;;;0.93;;
20154;SDS011;10238;49.556;10.956;2022-09-09T10:00:32;1.58;;;1.38;;
20154;SDS011;10238;49.556;10.956;2022-09-09T10:03:24;2.50;;;1.30;;
20154;SDS011;10238;49.556;10.956;2022-09-09T10:06:17;2.17;;;1.50;;
20154;SDS011;10238;49.556;10.956;2022-09-09T10:09:22;2.85;;;1.10;;
20154;SDS011;10238;49.556;10.956;2022-09-09T10:12:18;3.97;;;1.10;;
20154;SDS011;10238;49.556;10.956;2022-09-09T10:15:31;3.28;;;1.10;;
20154;SDS011;10238;49.556;10.956;2022-09-09T10:18:43;2.80;;;1.77;;
20154;SDS011;10238;49.556;10.956;2022-09-09T10:25:10;2.13;;;0.90;;
20154;SDS011;10238;49.556;10.956;2022-09-09T10:28:23;1.52;;;0.95;;
20154;SDS011;10238;49.556;10.956;2022-09-09T10:31:33;3.45;;;1.52;;
20154;SDS011;10238;49.556;10.956;2022-09-09T10:34:46;2.17;;;1.60;;
20154;SDS011;10238;49.556;10.956;2022-09-09T10:37:52;1.67;;;1.38;;
20154;SDS011;10238;49.556;10.956;2022-09-09T10:44:27;4.10;;;1.05;;
20154;SDS011;10238;49.556;10.956;2022-09-09T10:50:53;1.42;;;1.20;;
20154;SDS011;10238;49.556;10.956;2022-09-09T10:54:01;1.60;;;1.30;;
20154;SDS011;10238;49.556;10.956;2022-09-09T10:57:11;1.83;;;1.30;;
20154;SDS011;10238;49.556;10.956;2022-09-09T11:00:16;2.55;;;1.25;;
20154;SDS011;10238;49.556;10.956;2022-09-09T11:03:15;2.25;;;1.20;;
20154;SDS011;10238;49.556;10.956;2022-09-09T11:06:12;2.30;;;1.27;;
20154;SDS011;10238;49.556;10.956;2022-09-09T11:09:08;3.00;;;1.40;;
20154;SDS011;10238;49.556;10.956;2022-09-09T11:12:21;2.25;;;1.83;;
20154;SDS011;10238;49.556;10.956;2022-09-09T11:15:15;3.08;;;1.85;;
20154;SDS011;10238;49.556;10.956;2022-09-09T11:18:15;7.70;;;3.58;;
20154;SDS011;10238;49.556;10.956;2022-09-09T11:21:12;5.78;;;2.88;;
20154;SDS011;10238;49.556;10.956;2022-09-09T11:24:13;2.92;;;1.50;;
20154;SDS011;10238;49.556;10.956;2022-09-09T11:27:15;6.40;;;2.50;;
20154;SDS011;10238;49.556;10.956;2022-09-09T11:30:15;3.15;;;1.63;;
20154;SDS011;10238;49.556;10.956;2022-09-09T11:33:33;4.18;;;2.22;;
20154;SDS011;10238;49.556;10.956;2022-09-09T11:37:06;4.00;;;1.30;;
20154;SDS011;10238;49.556;10.956;2022-09-09T11:40:17;2.70;;;1.95;;
20154;SDS011;10238;49.556;10.956;2022-09-09T11:43:15;3.60;;;3.13;;
20154;SDS011;10238;49.556;10.956;2022-09-09T11:46:12;3.40;;;2.15;;
20154;SDS011;10238;49.556;10.956;2022-09-09T11:49:05;3.05;;;1.30;;
20154;SDS011;10238;49.556;10.956;2022-09-09T11:52:21;3.75;;;1.10;;
20154;SDS011;10238;49.556;10.956;2022-09-09T11:55:24;2.90;;;1.00;;
20154;SDS011;10238;49.556;10.956;2022-09-09T11:58:19;2.28;;;1.30;;
20154;SDS011;10238;49.556;10.956;2022-09-09T12:04:35;1.92;;;0.90;;
20154;SDS011;10238;49.556;10.956;2022-09-09T12:07:32;3.42;;;1.10;;
20154;SDS011;10238;49.556;10.956;2022-09-09T12:10:29;4.00;;;1.05;;
20154;SDS011;10238;49.556;10.956;2022-09-09T12:13:26;2.45;;;1.00;;
20154;SDS011;10238;49.556;10.956;2022-09-09T12:16:27;1.25;;;0.90;;
20154;SDS011;10238;49.556;10.956;2022-09-09T12:19:22;1.60;;;0.95;;
20154;SDS011;10238;49.556;10.956;2022-09-09T12:22:16;3.97;;;1.10;;
20154;SDS011;10238;49.556;10.956;2022-09-09T12:25:38;2.40;;;0.98;;
20154;SDS011;10238;49.556;10.956;2022-09-09T12:28:51;2.40;;;1.10;;
20154;SDS011;10238;49.556;10.956;2022-09-09T12:31:59;1.48;;;1.08;;
20154;SDS011;10238;49.556;10.956;2022-09-09T12:34:55;1.92;;;0.80;;
20154;SDS011;10238;49.556;10.956;2022-09-09T12:37:52;0.85;;;0.80;;
20154;SDS011;10238;49.556;10.956;2022-09-09T12:40:53;1.73;;;0.98;;
20154;SDS011;10238;49.556;10.956;2022-09-09T12:43:44;2.80;;;1.10;;
20154;SDS011;10238;49.556;10.956;2022-09-09T12:46:38;3.33;;;1.45;;
20154;SDS011;10238;49.556;10.956;2022-09-09T12:49:34;2.75;;;0.80;;
20154;SDS011;10238;49.556;10.956;2022-09-09T12:52:30;2.33;;;1.30;;
20154;SDS011;10238;49.556;10.956;2022-09-09T12:55:25;2.88;;;2.63;;
20154;SDS011;10238;49.556;10.956;2022-09-09T12:58:20;3.55;;;1.27;;
20154;SDS011;10238;49.556;10.956;2022-09-09T13:01:17;6.47;;;3.72;;
20154;SDS011;10238;49.556;10.956;2022-09-09T13:04:20;8.13;;;3.42;;
20154;SDS011;10238;49.556;10.956;2022-09-09T13:07:10;5.85;;;2.00;;
20154;SDS011;10238;49.556;10.956;2022-09-09T13:10:03;5.63;;;2.78;;
20154;SDS011;10238;49.556;10.956;2022-09-09T13:12:55;5.68;;;1.80;;
20154;SDS011;10238;49.556;10.956;2022-09-09T13:15:48;5.25;;;2.00;;
20154;SDS011;10238;49.556;10.956;2022-09-09T13:18:40;5.93;;;2.58;;
20154;SDS011;10238;49.556;10.956;2022-09-09T13:21:32;5.97;;;2.20;;
20154;SDS011;10238;49.556;10.956;2022-09-09T13:24:28;5.10;;;3.38;;
20154;SDS011;10238;49.556;10.956;2022-09-09T13:27:23;4.78;;;4.03;;
20154;SDS011;10238;49.556;10.956;2022-09-09T13:30:19;8.05;;;7.38;;
20154;SDS011;10238;49.556;10.956;2022-09-09T13:33:21;8.77;;;7.97;;
20154;SDS011;10238;49.556;10.956;2022-09-09T13:36:11;7.18;;;6.78;;
20154;SDS011;10238;49.556;10.956;2022-09-09T13:39:03;6.30;;;5.70;;
20154;SDS011;10238;49.556;10.956;2022-09-09T13:41:52;4.25;;;3.70;;
20154;SDS011;10238;49.556;10.956;2022-09-09T13:44:42;4.90;;;4.25;;
20154;SDS011;10238;49.556;10.956;2022-09-09T13:47:35;3.65;;;2.35;;
20154;SDS011;10238;49.556;10.956;2022-09-09T13:50:25;1.80;;;1.63;;
20154;SDS011;10238;49.556;10.956;2022-09-09T13:53:16;2.88;;;1.63;;
20154;SDS011;10238;49.556;10.956;2022-09-09T13:56:07;3.22;;;1.60;;
20154;SDS011;10238;49.556;10.956;2022-09-09T13:58:57;2.90;;;1.67;;
20154;SDS011;10238;49.556;10.956;2022-09-09T14:01:46;3.20;;;1.75;;
20154;SDS011;10238;49.556;10.956;2022-09-09T14:04:36;1.73;;;1.30;;
20154;SDS011;10238;49.556;10.956;2022-09-09T14:07:28;3.42;;;1.48;;
20154;SDS011;10238;49.556;10.956;2022-09-09T14:10:17;3.75;;;1.30;;
20154;SDS011;10238;49.556;10.956;2022-09-09T14:13:08;3.28;;;1.75;;
20154;SDS011;10238;49.556;10.956;2022-09-09T14:15:57;1.45;;;1.30;;
20154;SDS011;10238;49.556;10.956;2022-09-09T14:18:46;4.50;;;1.30;;
20154;SDS011;10238;49.556;10.956;2022-09-09T14:21:36;5.15;;;1.60;;
20154;SDS011;10238;49.556;10.956;2022-09-09T14:24:25;2.75;;;1.52;;
20154;SDS011;10238;49.556;10.956;2022-09-09T14:27:15;3.65;;;1.70;;
20154;SDS011;10238;49.556;10.956;2022-09-09T14:30:08;5.07;;;1.60;;
20154;SDS011;10238;49.556;10.956;2022-09-09T14:32:58;5.35;;;1.85;;
20154;SDS011;10238;49.556;10.956;2022-09-09T14:35:47;2.25;;;1.60;;
20154;SDS011;10238;49.556;10.956;2022-09-09T14:38:43;5.10;;;1.40;;
20154;SDS011;10238;49.556;10.956;2022-09-09T14:41:32;2.90;;;1.30;;
20154;SDS011;10238;49.556;10.956;2022-09-09T14:44:22;3.83;;;1.50;;
20154;SDS011;10238;49.556;10.956;2022-09-09T14:47:12;2.60;;;1.48;;
20154;SDS011;10238;49.556;10.956;2022-09-09T14:50:01;3.10;;;1.70;;
20154;SDS011;10238;49.556;10.956;2022-09-09T14:52:52;2.80;;;1.60;;
20154;SDS011;10238;49.556;10.956;2022-09-09T14:55:41;4.03;;;1.90;;
20154;SDS011;10238;49.556;10.956;2022-09-09T14:58:30;3.40;;;1.42;;
20154;SDS011;10238;49.556;10.956;2022-09-09T15:01:19;4.30;;;1.60;;
20154;SDS011;10238;49.556;10.956;2022-09-09T15:04:11;5.47;;;1.60;;
20154;SDS011;10238;49.556;10.956;2022-09-09T15:07:02;2.83;;;1.52;;
20154;SDS011;10238;49.556;10.956;2022-09-09T15:09:51;4.18;;;1.60;;
20154;SDS011;10238;49.556;10.956;2022-09-09T15:12:40;3.40;;;1.80;;
20154;SDS011;10238;49.556;10.956;2022-09-09T15:15:29;6.00;;;1.80;;
20154;SDS011;10238;49.556;10.956;2022-09-09T15:18:22;2.30;;;1.35;;
20154;SDS011;10238;49.556;10.956;2022-09-09T15:21:13;3.55;;;1.67;;
20154;SDS011;10238;49.556;10.956;2022-09-09T15:24:04;1.90;;;1.40;;
20154;SDS011;10238;49.556;10.956;2022-09-09T15:26:55;4.20;;;1.67;;
20154;SDS011;10238;49.556;10.956;2022-09-09T15:29:44;4.43;;;1.60;;
20154;SDS011;10238;49.556;10.956;2022-09-09T15:32:33;1.40;;;1.30;;
20154;SDS011;10238;49.556;10.956;2022-09-09T15:35:23;2.25;;;1.45;;
20154;SDS011;10238;49.556;10.956;2022-09-09T15:38:13;3.50;;;1.52;;
20154;SDS011;10238;49.556;10.956;2022-09-09T15:41:04;1.80;;;1.70;;
20154;SDS011;10238;49.556;10.956;2022-09-09T15:43:54;3.20;;;1.35;;
20154;SDS011;10238;49.556;10.956;2022-09-09T15:46:45;2.72;;;1.40;;
20154;SDS011;10238;49.556;10.956;2022-09-09T15:49:37;2.70;;;1.38;;
20154;SDS011;10238;49.556;10.956;2022-09-09T15:52:27;3.90;;;1.50;;
20154;SDS011;10238;49.556;10.956;2022-09-09T15:55:17;1.45;;;1.30;;
20154;SDS011;10238;49.556;10.956;2022-09-09T15:58:07;3.05;;;1.70;;
20154;SDS011;10238;49.556;10.956;2022-09-09T16:01:00;4.80;;;1.60;;
20154;SDS011;10238;49.556;10.956;2022-09-09T16:03:51;2.75;;;1.80;;
20154;SDS011;10238;49.556;10.956;2022-09-09T16:06:41;2.58;;;1.55;;
20154;SDS011;10238;49.556;10.956;2022-09-09T16:09:30;2.58;;;1.38;;
20154;SDS011;10238;49.556;10.956;2022-09-09T16:12:22;1.77;;;1.30;;
20154;SDS011;10238;49.556;10.956;2022-09-09T16:15:11;2.47;;;1.10;;
20154;SDS011;10238;49.556;10.956;2022-09-09T16:18:32;1.48;;;1.27;;
20154;SDS011;10238;49.556;10.956;2022-09-09T16:21:24;2.10;;;1.10;;
20154;SDS011;10238;49.556;10.956;2022-09-09T16:24:16;1.20;;;1.00;;
20154;SDS011;10238;49.556;10.956;2022-09-09T16:27:08;1.02;;;0.82;;
20154;SDS011;10238;49.556;10.956;2022-09-09T16:29:59;1.10;;;1.00;;
20154;SDS011;10238;49.556;10.956;2022-09-09T16:32:49;1.20;;;1.13;;
20154;SDS011;10238;49.556;10.956;2022-09-09T16:35:38;2.75;;;1.27;;
20154;SDS011;10238;49.556;10.956;2022-09-09T16:38:38;1.02;;;1.02;;
20154;SDS011;10238;49.556;10.956;2022-09-09T16:41:27;1.38;;;1.30;;
20154;SDS011;10238;49.556;10.956;2022-09-09T16:44:18;1.60;;;1.50;;
20154;SDS011;10238;49.556;10.956;2022-09-09T16:47:09;1.60;;;1.50;;
20154;SDS011;10238;49.556;10.956;2022-09-09T16:49:58;2.13;;;1.90;;
20154;SDS011;10238;49.556;10.956;2022-09-09T16:52:47;2.55;;;1.80;;
20154;SDS011;10238;49.556;10.956;2022-09-09T16:55:39;2.53;;;2.42;;
20154;SDS011;10238;49.556;10.956;2022-09-09T16:58:29;2.47;;;2.38;;
20154;SDS011;10238;49.556;10.956;2022-09-09T17:01:18;3.30;;;3.00;;
20154;SDS011;10238;49.556;10.956;2022-09-09T17:04:09;2.13;;;2.03;;
20154;SDS011;10238;49.556;10.956;2022-09-09T17:07:02;2.17;;;2.08;;
20154;SDS011;10238;49.556;10.956;2022-09-09T17:09:51;2.53;;;2.40;;
20154;SDS011;10238;49.556;10.956;2022-09-09T17:12:41;2.88;;;2.78;;
20154;SDS011;10238;49.556;10.956;2022-09-09T17:15:30;1.60;;;1.13;;
20154;SDS011;10238;49.556;10.956;2022-09-09T17:18:19;1.08;;;0.85;;
20154;SDS011;10238;49.556;10.956;2022-09-09T17:21:11;0.85;;;0.80;;
20154;SDS011;10238;49.556;10.956;2022-09-09T17:24:03;0.70;;;0.70;;
20154;SDS011;10238;49.556;10.956;2022-09-09T17:26:52;0.80;;;0.80;;
20154;SDS011;10238;49.556;10.956;2022-09-09T17:29:42;0.80;;;0.80;;
20154;SDS011;10238;49.556;10.956;2022-09-09T17:32:31;2.58;;;0.90;;